sensor_id;sensor_type;location;lat;lon;timestamp;P1;durP1;ratioP1;P2;durP2;ratioP2
18259;SDS011;9256;52.236;5.712;2023-08-07T00:00:42;3.35;;;0.90;;
18259;SDS011;9256;52.236;5.712;2023-08-07T00:03:09;6.80;;;1.17;;
18259;SDS011;9256;52.236;5.712;2023-08-07T00:05:44;5.07;;;0.90;;
18259;SDS011;9256;52.236;5.712;2023-08-07T00:08:11;6.75;;;0.80;;
18259;SDS011;9256;52.236;5.712;2023-08-07T00:10:39;2.22;;;0.75;;
18259;SDS011;9256;52.236;5.712;2023-08-07T00:13:06;4.70;;;1.00;;
18259;SDS011;9256;52.236;5.712;2023-08-07T00:15:33;4.30;;;0.73;;
18259;SDS011;9256;52.236;5.712;2023-08-07T00:18:00;4.82;;;0.80;;
18259;SDS011;9256;52.236;5.712;2023-08-07T00:20:27;9.52;;;1.30;;
18259;SDS011;9256;52.236;5.712;2023-08-07T00:22:54;6.57;;;1.00;;
18259;SDS011;9256;52.236;5.712;2023-08-07T00:25:21;4.90;;;0.90;;
18259;SDS011;9256;52.236;5.712;2023-08-07T00:27:49;5.38;;;0.90;;
18259;SDS011;9256;52.236;5.712;2023-08-07T00:30:16;8.43;;;0.98;;
18259;SDS011;9256;52.236;5.712;2023-08-07T00:32:43;5.07;;;0.80;;
18259;SDS011;9256;52.236;5.712;2023-08-07T00:35:10;5.32;;;0.90;;
18259;SDS011;9256;52.236;5.712;2023-08-07T00:37:37;6.32;;;1.17;;
18259;SDS011;9256;52.236;5.712;2023-08-07T00:40:04;7.72;;;1.25;;
18259;SDS011;9256;52.236;5.712;2023-08-07T00:42:32;8.85;;;1.45;;
18259;SDS011;9256;52.236;5.712;2023-08-07T00:45:00;7.50;;;1.20;;
18259;SDS011;9256;52.236;5.712;2023-08-07T00:47:27;4.82;;;1.20;;
18259;SDS011;9256;52.236;5.712;2023-08-07T00:49:54;8.50;;;1.20;;
18259;SDS011;9256;52.236;5.712;2023-08-07T00:52:22;11.93;;;1.70;;
18259;SDS011;9256;52.236;5.712;2023-08-07T00:54:49;9.10;;;1.60;;
18259;SDS011;9256;52.236;5.712;2023-08-07T00:57:16;7.07;;;1.33;;
18259;SDS011;9256;52.236;5.712;2023-08-07T00:59:47;9.98;;;1.70;;
18259;SDS011;9256;52.236;5.712;2023-08-07T01:02:16;7.35;;;1.50;;
18259;SDS011;9256;52.236;5.712;2023-08-07T01:04:43;14.53;;;2.00;;
18259;SDS011;9256;52.236;5.712;2023-08-07T01:07:10;9.63;;;1.52;;
18259;SDS011;9256;52.236;5.712;2023-08-07T01:09:37;15.93;;;1.60;;
18259;SDS011;9256;52.236;5.712;2023-08-07T01:12:07;7.60;;;1.48;;
18259;SDS011;9256;52.236;5.712;2023-08-07T01:14:40;7.10;;;1.40;;
18259;SDS011;9256;52.236;5.712;2023-08-07T01:17:23;11.77;;;1.92;;
18259;SDS011;9256;52.236;5.712;2023-08-07T01:19:50;6.43;;;1.48;;
18259;SDS011;9256;52.236;5.712;2023-08-07T01:22:19;7.72;;;1.67;;
18259;SDS011;9256;52.236;5.712;2023-08-07T01:24:47;9.88;;;1.95;;
18259;SDS011;9256;52.236;5.712;2023-08-07T01:27:19;9.18;;;1.67;;
18259;SDS011;9256;52.236;5.712;2023-08-07T01:29:57;12.60;;;2.30;;
18259;SDS011;9256;52.236;5.712;2023-08-07T01:32:34;8.70;;;1.70;;
18259;SDS011;9256;52.236;5.712;2023-08-07T01:35:05;11.93;;;1.70;;
18259;SDS011;9256;52.236;5.712;2023-08-07T01:37:33;12.88;;;1.90;;
18259;SDS011;9256;52.236;5.712;2023-08-07T01:40:05;16.65;;;2.63;;
18259;SDS011;9256;52.236;5.712;2023-08-07T01:42:32;6.57;;;1.52;;
18259;SDS011;9256;52.236;5.712;2023-08-07T01:45:00;10.32;;;1.40;;
18259;SDS011;9256;52.236;5.712;2023-08-07T01:47:27;10.07;;;1.48;;
18259;SDS011;9256;52.236;5.712;2023-08-07T01:49:54;7.05;;;1.27;;
18259;SDS011;9256;52.236;5.712;2023-08-07T01:52:20;9.73;;;1.88;;
18259;SDS011;9256;52.236;5.712;2023-08-07T01:54:49;11.95;;;1.75;;
18259;SDS011;9256;52.236;5.712;2023-08-07T01:57:16;9.38;;;1.58;;
18259;SDS011;9256;52.236;5.712;2023-08-07T01:59:43;7.25;;;1.65;;
18259;SDS011;9256;52.236;5.712;2023-08-07T02:02:10;8.30;;;1.77;;
18259;SDS011;9256;52.236;5.712;2023-08-07T02:04:37;7.38;;;1.45;;
18259;SDS011;9256;52.236;5.712;2023-08-07T02:07:04;5.55;;;1.33;;
18259;SDS011;9256;52.236;5.712;2023-08-07T02:09:31;11.55;;;1.77;;
18259;SDS011;9256;52.236;5.712;2023-08-07T02:11:59;9.10;;;1.80;;
18259;SDS011;9256;52.236;5.712;2023-08-07T02:14:26;10.27;;;1.67;;
18259;SDS011;9256;52.236;5.712;2023-08-07T02:16:53;9.50;;;1.85;;
18259;SDS011;9256;52.236;5.712;2023-08-07T02:19:20;6.40;;;1.30;;
18259;SDS011;9256;52.236;5.712;2023-08-07T02:21:47;6.55;;;1.35;;
18259;SDS011;9256;52.236;5.712;2023-08-07T02:24:14;8.05;;;1.42;;
18259;SDS011;9256;52.236;5.712;2023-08-07T02:26:41;9.98;;;1.52;;
18259;SDS011;9256;52.236;5.712;2023-08-07T02:29:09;9.20;;;1.80;;
18259;SDS011;9256;52.236;5.712;2023-08-07T02:31:36;13.10;;;1.58;;
18259;SDS011;9256;52.236;5.712;2023-08-07T02:34:03;7.35;;;1.50;;
18259;SDS011;9256;52.236;5.712;2023-08-07T02:36:29;7.38;;;1.40;;
18259;SDS011;9256;52.236;5.712;2023-08-07T02:38:56;5.65;;;1.27;;
18259;SDS011;9256;52.236;5.712;2023-08-07T02:41:23;9.93;;;1.35;;
18259;SDS011;9256;52.236;5.712;2023-08-07T02:43:50;11.93;;;1.50;;
18259;SDS011;9256;52.236;5.712;2023-08-07T02:46:18;7.90;;;1.65;;
18259;SDS011;9256;52.236;5.712;2023-08-07T02:48:45;10.43;;;2.10;;
18259;SDS011;9256;52.236;5.712;2023-08-07T02:51:12;6.88;;;1.55;;
18259;SDS011;9256;52.236;5.712;2023-08-07T02:53:39;5.47;;;1.48;;
18259;SDS011;9256;52.236;5.712;2023-08-07T02:56:06;9.73;;;1.75;;
18259;SDS011;9256;52.236;5.712;2023-08-07T02:58:33;7.70;;;1.48;;
18259;SDS011;9256;52.236;5.712;2023-08-07T03:01:02;8.95;;;1.73;;
18259;SDS011;9256;52.236;5.712;2023-08-07T03:03:32;8.25;;;1.60;;
18259;SDS011;9256;52.236;5.712;2023-08-07T03:05:59;10.13;;;1.70;;
18259;SDS011;9256;52.236;5.712;2023-08-07T03:08:26;5.22;;;1.77;;
18259;SDS011;9256;52.236;5.712;2023-08-07T03:10:54;12.98;;;1.55;;
18259;SDS011;9256;52.236;5.712;2023-08-07T03:13:22;6.88;;;1.48;;
18259;SDS011;9256;52.236;5.712;2023-08-07T03:15:50;6.60;;;1.35;;
18259;SDS011;9256;52.236;5.712;2023-08-07T03:18:24;6.63;;;1.30;;
18259;SDS011;9256;52.236;5.712;2023-08-07T03:20:52;11.45;;;1.63;;
18259;SDS011;9256;52.236;5.712;2023-08-07T03:23:19;9.38;;;2.10;;
18259;SDS011;9256;52.236;5.712;2023-08-07T03:25:46;9.68;;;1.65;;
18259;SDS011;9256;52.236;5.712;2023-08-07T03:28:13;6.75;;;1.95;;
18259;SDS011;9256;52.236;5.712;2023-08-07T03:30:40;8.75;;;1.77;;
18259;SDS011;9256;52.236;5.712;2023-08-07T03:33:07;7.45;;;1.70;;
18259;SDS011;9256;52.236;5.712;2023-08-07T03:35:34;13.07;;;1.50;;
18259;SDS011;9256;52.236;5.712;2023-08-07T03:38:02;10.52;;;1.88;;
18259;SDS011;9256;52.236;5.712;2023-08-07T03:40:29;7.13;;;1.40;;
18259;SDS011;9256;52.236;5.712;2023-08-07T03:42:56;8.55;;;1.60;;
18259;SDS011;9256;52.236;5.712;2023-08-07T03:45:23;8.95;;;1.60;;
18259;SDS011;9256;52.236;5.712;2023-08-07T03:47:50;6.57;;;1.70;;
18259;SDS011;9256;52.236;5.712;2023-08-07T03:50:17;12.15;;;1.80;;
18259;SDS011;9256;52.236;5.712;2023-08-07T03:52:43;8.90;;;2.10;;
18259;SDS011;9256;52.236;5.712;2023-08-07T03:55:12;10.70;;;1.90;;
18259;SDS011;9256;52.236;5.712;2023-08-07T03:57:39;6.30;;;1.48;;
18259;SDS011;9256;52.236;5.712;2023-08-07T04:00:06;6.95;;;1.60;;
18259;SDS011;9256;52.236;5.712;2023-08-07T04:02:34;8.48;;;2.00;;
18259;SDS011;9256;52.236;5.712;2023-08-07T04:05:01;12.18;;;1.70;;
18259;SDS011;9256;52.236;5.712;2023-08-07T04:07:28;8.40;;;1.67;;
18259;SDS011;9256;52.236;5.712;2023-08-07T04:09:54;8.02;;;1.60;;
18259;SDS011;9256;52.236;5.712;2023-08-07T04:12:23;9.38;;;2.17;;
18259;SDS011;9256;52.236;5.712;2023-08-07T04:14:50;7.65;;;1.58;;
18259;SDS011;9256;52.236;5.712;2023-08-07T04:17:17;4.10;;;1.58;;
18259;SDS011;9256;52.236;5.712;2023-08-07T04:19:44;8.55;;;1.60;;
18259;SDS011;9256;52.236;5.712;2023-08-07T04:22:11;7.97;;;1.50;;
18259;SDS011;9256;52.236;5.712;2023-08-07T04:24:38;5.25;;;1.60;;
18259;SDS011;9256;52.236;5.712;2023-08-07T04:27:05;4.75;;;1.30;;
18259;SDS011;9256;52.236;5.712;2023-08-07T04:29:34;6.93;;;1.20;;
18259;SDS011;9256;52.236;5.712;2023-08-07T04:32:01;4.93;;;1.60;;
18259;SDS011;9256;52.236;5.712;2023-08-07T04:34:28;7.47;;;1.63;;
18259;SDS011;9256;52.236;5.712;2023-08-07T04:36:55;11.35;;;1.77;;
18259;SDS011;9256;52.236;5.712;2023-08-07T04:39:22;10.77;;;1.85;;
18259;SDS011;9256;52.236;5.712;2023-08-07T04:41:49;9.20;;;2.00;;
18259;SDS011;9256;52.236;5.712;2023-08-07T04:44:16;9.75;;;2.25;;
18259;SDS011;9256;52.236;5.712;2023-08-07T04:46:44;7.10;;;1.98;;
18259;SDS011;9256;52.236;5.712;2023-08-07T04:49:11;10.40;;;2.05;;
18259;SDS011;9256;52.236;5.712;2023-08-07T04:51:39;8.32;;;2.10;;
18259;SDS011;9256;52.236;5.712;2023-08-07T04:54:06;11.38;;;2.33;;
18259;SDS011;9256;52.236;5.712;2023-08-07T04:56:34;14.43;;;2.67;;
18259;SDS011;9256;52.236;5.712;2023-08-07T04:59:00;11.85;;;2.13;;
18259;SDS011;9256;52.236;5.712;2023-08-07T05:01:28;11.50;;;2.35;;
18259;SDS011;9256;52.236;5.712;2023-08-07T05:03:56;12.77;;;2.50;;
18259;SDS011;9256;52.236;5.712;2023-08-07T05:06:24;8.43;;;2.10;;
18259;SDS011;9256;52.236;5.712;2023-08-07T05:08:51;10.60;;;2.58;;
18259;SDS011;9256;52.236;5.712;2023-08-07T05:11:17;9.23;;;2.10;;
18259;SDS011;9256;52.236;5.712;2023-08-07T05:13:45;10.52;;;2.25;;
18259;SDS011;9256;52.236;5.712;2023-08-07T05:16:12;9.30;;;2.20;;
18259;SDS011;9256;52.236;5.712;2023-08-07T05:18:39;13.60;;;3.10;;
18259;SDS011;9256;52.236;5.712;2023-08-07T05:21:07;10.68;;;2.67;;
18259;SDS011;9256;52.236;5.712;2023-08-07T05:23:34;7.47;;;2.28;;
18259;SDS011;9256;52.236;5.712;2023-08-07T05:26:01;10.25;;;2.30;;
18259;SDS011;9256;52.236;5.712;2023-08-07T05:28:28;13.15;;;2.40;;
18259;SDS011;9256;52.236;5.712;2023-08-07T05:30:55;10.68;;;2.53;;
18259;SDS011;9256;52.236;5.712;2023-08-07T05:33:22;14.23;;;2.80;;
18259;SDS011;9256;52.236;5.712;2023-08-07T05:35:49;16.13;;;3.05;;
18259;SDS011;9256;52.236;5.712;2023-08-07T05:38:19;14.45;;;3.10;;
18259;SDS011;9256;52.236;5.712;2023-08-07T05:40:46;12.93;;;2.50;;
18259;SDS011;9256;52.236;5.712;2023-08-07T05:43:12;15.52;;;2.72;;
18259;SDS011;9256;52.236;5.712;2023-08-07T05:45:42;11.27;;;2.30;;
18259;SDS011;9256;52.236;5.712;2023-08-07T05:48:10;14.90;;;2.63;;
18259;SDS011;9256;52.236;5.712;2023-08-07T05:50:37;14.63;;;2.60;;
18259;SDS011;9256;52.236;5.712;2023-08-07T05:53:03;10.93;;;2.80;;
18259;SDS011;9256;52.236;5.712;2023-08-07T05:55:32;13.10;;;2.58;;
18259;SDS011;9256;52.236;5.712;2023-08-07T05:57:59;11.63;;;2.53;;
18259;SDS011;9256;52.236;5.712;2023-08-07T06:00:26;12.63;;;2.38;;
18259;SDS011;9256;52.236;5.712;2023-08-07T06:02:53;11.98;;;2.72;;
18259;SDS011;9256;52.236;5.712;2023-08-07T06:05:20;12.63;;;2.58;;
18259;SDS011;9256;52.236;5.712;2023-08-07T06:07:47;15.43;;;3.17;;
18259;SDS011;9256;52.236;5.712;2023-08-07T06:10:14;15.32;;;2.50;;
18259;SDS011;9256;52.236;5.712;2023-08-07T06:12:42;16.90;;;3.00;;
18259;SDS011;9256;52.236;5.712;2023-08-07T06:15:09;11.13;;;2.58;;
18259;SDS011;9256;52.236;5.712;2023-08-07T06:17:36;14.40;;;3.00;;
18259;SDS011;9256;52.236;5.712;2023-08-07T06:20:05;14.07;;;3.13;;
18259;SDS011;9256;52.236;5.712;2023-08-07T06:22:34;16.20;;;3.15;;
18259;SDS011;9256;52.236;5.712;2023-08-07T06:25:01;16.73;;;3.03;;
18259;SDS011;9256;52.236;5.712;2023-08-07T06:27:28;13.35;;;2.90;;
18259;SDS011;9256;52.236;5.712;2023-08-07T06:29:57;12.73;;;2.83;;
18259;SDS011;9256;52.236;5.712;2023-08-07T06:32:24;17.17;;;3.50;;
18259;SDS011;9256;52.236;5.712;2023-08-07T06:34:53;15.07;;;3.25;;
18259;SDS011;9256;52.236;5.712;2023-08-07T06:37:20;13.75;;;3.20;;
18259;SDS011;9256;52.236;5.712;2023-08-07T06:39:47;11.57;;;2.63;;
18259;SDS011;9256;52.236;5.712;2023-08-07T06:42:14;14.55;;;2.45;;
18259;SDS011;9256;52.236;5.712;2023-08-07T06:44:40;14.77;;;2.63;;
18259;SDS011;9256;52.236;5.712;2023-08-07T06:47:09;12.73;;;2.40;;
18259;SDS011;9256;52.236;5.712;2023-08-07T06:49:36;12.37;;;2.80;;
18259;SDS011;9256;52.236;5.712;2023-08-07T06:52:03;9.52;;;2.40;;
18259;SDS011;9256;52.236;5.712;2023-08-07T06:54:30;9.73;;;2.35;;
18259;SDS011;9256;52.236;5.712;2023-08-07T06:56:57;16.17;;;2.53;;
18259;SDS011;9256;52.236;5.712;2023-08-07T06:59:24;10.85;;;2.38;;
18259;SDS011;9256;52.236;5.712;2023-08-07T07:01:51;10.90;;;2.83;;
18259;SDS011;9256;52.236;5.712;2023-08-07T07:04:19;12.02;;;2.55;;
18259;SDS011;9256;52.236;5.712;2023-08-07T07:06:46;9.52;;;2.53;;
18259;SDS011;9256;52.236;5.712;2023-08-07T07:09:13;9.05;;;2.38;;
18259;SDS011;9256;52.236;5.712;2023-08-07T07:11:41;11.70;;;2.65;;
18259;SDS011;9256;52.236;5.712;2023-08-07T07:14:09;9.65;;;2.08;;
18259;SDS011;9256;52.236;5.712;2023-08-07T07:16:36;11.27;;;2.35;;
18259;SDS011;9256;52.236;5.712;2023-08-07T07:19:03;11.43;;;1.92;;
18259;SDS011;9256;52.236;5.712;2023-08-07T07:21:33;11.00;;;2.10;;
18259;SDS011;9256;52.236;5.712;2023-08-07T07:24:01;7.75;;;2.28;;
18259;SDS011;9256;52.236;5.712;2023-08-07T07:26:28;12.75;;;2.10;;
18259;SDS011;9256;52.236;5.712;2023-08-07T07:28:55;9.45;;;2.20;;
18259;SDS011;9256;52.236;5.712;2023-08-07T07:31:21;11.45;;;2.30;;
18259;SDS011;9256;52.236;5.712;2023-08-07T07:33:48;9.23;;;2.25;;
18259;SDS011;9256;52.236;5.712;2023-08-07T07:36:15;7.93;;;2.50;;
18259;SDS011;9256;52.236;5.712;2023-08-07T07:38:46;9.98;;;2.33;;
18259;SDS011;9256;52.236;5.712;2023-08-07T07:41:13;8.30;;;2.25;;
18259;SDS011;9256;52.236;5.712;2023-08-07T07:43:40;13.18;;;2.88;;
18259;SDS011;9256;52.236;5.712;2023-08-07T07:46:08;11.80;;;2.42;;
18259;SDS011;9256;52.236;5.712;2023-08-07T07:48:35;10.32;;;2.20;;
18259;SDS011;9256;52.236;5.712;2023-08-07T07:51:02;10.20;;;2.35;;
18259;SDS011;9256;52.236;5.712;2023-08-07T07:53:29;13.80;;;2.53;;
18259;SDS011;9256;52.236;5.712;2023-08-07T07:55:58;15.30;;;2.30;;
18259;SDS011;9256;52.236;5.712;2023-08-07T07:58:25;13.57;;;2.78;;
18259;SDS011;9256;52.236;5.712;2023-08-07T08:00:52;11.27;;;2.88;;
18259;SDS011;9256;52.236;5.712;2023-08-07T08:03:19;15.45;;;2.70;;
18259;SDS011;9256;52.236;5.712;2023-08-07T08:05:49;9.20;;;2.30;;
18259;SDS011;9256;52.236;5.712;2023-08-07T08:08:16;9.15;;;2.58;;
18259;SDS011;9256;52.236;5.712;2023-08-07T08:10:43;12.05;;;2.70;;
18259;SDS011;9256;52.236;5.712;2023-08-07T08:13:13;9.55;;;2.50;;
18259;SDS011;9256;52.236;5.712;2023-08-07T08:15:41;13.70;;;3.10;;
18259;SDS011;9256;52.236;5.712;2023-08-07T08:18:08;13.50;;;2.30;;
18259;SDS011;9256;52.236;5.712;2023-08-07T08:20:35;10.63;;;2.20;;
18259;SDS011;9256;52.236;5.712;2023-08-07T08:23:02;8.75;;;2.13;;
18259;SDS011;9256;52.236;5.712;2023-08-07T08:25:29;11.18;;;3.03;;
18259;SDS011;9256;52.236;5.712;2023-08-07T08:27:57;11.13;;;2.03;;
18259;SDS011;9256;52.236;5.712;2023-08-07T08:30:26;11.25;;;1.60;;
18259;SDS011;9256;52.236;5.712;2023-08-07T08:32:55;7.43;;;1.85;;
18259;SDS011;9256;52.236;5.712;2023-08-07T08:35:22;9.82;;;2.05;;
18259;SDS011;9256;52.236;5.712;2023-08-07T08:37:49;6.13;;;1.75;;
18259;SDS011;9256;52.236;5.712;2023-08-07T08:40:16;6.85;;;1.80;;
18259;SDS011;9256;52.236;5.712;2023-08-07T08:42:44;8.73;;;1.60;;
18259;SDS011;9256;52.236;5.712;2023-08-07T08:45:12;9.77;;;1.75;;
18259;SDS011;9256;52.236;5.712;2023-08-07T08:47:42;7.20;;;1.67;;
18259;SDS011;9256;52.236;5.712;2023-08-07T08:50:10;9.88;;;2.10;;
18259;SDS011;9256;52.236;5.712;2023-08-07T08:52:41;8.48;;;1.83;;
18259;SDS011;9256;52.236;5.712;2023-08-07T08:55:09;13.25;;;1.80;;
18259;SDS011;9256;52.236;5.712;2023-08-07T08:57:37;5.13;;;1.45;;
18259;SDS011;9256;52.236;5.712;2023-08-07T09:00:06;4.18;;;1.25;;
18259;SDS011;9256;52.236;5.712;2023-08-07T09:02:44;7.22;;;1.38;;
18259;SDS011;9256;52.236;5.712;2023-08-07T09:05:14;8.10;;;1.70;;
18259;SDS011;9256;52.236;5.712;2023-08-07T09:07:41;10.98;;;1.55;;
18259;SDS011;9256;52.236;5.712;2023-08-07T09:10:09;5.40;;;1.15;;
18259;SDS011;9256;52.236;5.712;2023-08-07T09:12:38;4.80;;;1.20;;
18259;SDS011;9256;52.236;5.712;2023-08-07T09:15:08;4.18;;;1.30;;
18259;SDS011;9256;52.236;5.712;2023-08-07T09:17:39;5.10;;;1.10;;
18259;SDS011;9256;52.236;5.712;2023-08-07T09:20:08;5.65;;;1.40;;
18259;SDS011;9256;52.236;5.712;2023-08-07T09:22:38;6.32;;;1.20;;
18259;SDS011;9256;52.236;5.712;2023-08-07T09:25:07;7.60;;;1.25;;
18259;SDS011;9256;52.236;5.712;2023-08-07T09:27:36;5.88;;;1.30;;
18259;SDS011;9256;52.236;5.712;2023-08-07T09:30:04;6.43;;;1.15;;
18259;SDS011;9256;52.236;5.712;2023-08-07T09:32:34;6.90;;;1.30;;
18259;SDS011;9256;52.236;5.712;2023-08-07T09:35:02;6.43;;;1.30;;
18259;SDS011;9256;52.236;5.712;2023-08-07T09:37:31;3.60;;;1.17;;
18259;SDS011;9256;52.236;5.712;2023-08-07T09:39:59;9.00;;;1.10;;
18259;SDS011;9256;52.236;5.712;2023-08-07T09:42:28;3.83;;;1.20;;
18259;SDS011;9256;52.236;5.712;2023-08-07T09:44:59;7.38;;;1.73;;
18259;SDS011;9256;52.236;5.712;2023-08-07T09:47:26;5.18;;;1.38;;
18259;SDS011;9256;52.236;5.712;2023-08-07T09:49:55;5.80;;;1.30;;
18259;SDS011;9256;52.236;5.712;2023-08-07T09:52:22;5.80;;;1.42;;
18259;SDS011;9256;52.236;5.712;2023-08-07T09:54:56;9.07;;;1.50;;
18259;SDS011;9256;52.236;5.712;2023-08-07T09:57:23;7.90;;;1.48;;
18259;SDS011;9256;52.236;5.712;2023-08-07T09:59:51;5.60;;;1.30;;
18259;SDS011;9256;52.236;5.712;2023-08-07T10:02:18;9.52;;;1.60;;
18259;SDS011;9256;52.236;5.712;2023-08-07T10:04:47;6.07;;;1.40;;
18259;SDS011;9256;52.236;5.712;2023-08-07T10:07:16;5.53;;;1.23;;
18259;SDS011;9256;52.236;5.712;2023-08-07T10:09:43;5.00;;;1.30;;
18259;SDS011;9256;52.236;5.712;2023-08-07T10:12:13;5.97;;;1.50;;
18259;SDS011;9256;52.236;5.712;2023-08-07T10:14:42;4.80;;;1.20;;
18259;SDS011;9256;52.236;5.712;2023-08-07T10:17:11;6.97;;;1.30;;
18259;SDS011;9256;52.236;5.712;2023-08-07T10:19:38;5.60;;;1.52;;
18259;SDS011;9256;52.236;5.712;2023-08-07T10:22:05;7.45;;;1.42;;
18259;SDS011;9256;52.236;5.712;2023-08-07T10:24:33;4.78;;;1.15;;
18259;SDS011;9256;52.236;5.712;2023-08-07T10:27:03;6.85;;;1.50;;
18259;SDS011;9256;52.236;5.712;2023-08-07T10:29:33;9.95;;;1.42;;
18259;SDS011;9256;52.236;5.712;2023-08-07T10:32:00;6.30;;;1.35;;
18259;SDS011;9256;52.236;5.712;2023-08-07T10:34:29;6.45;;;1.30;;
18259;SDS011;9256;52.236;5.712;2023-08-07T10:36:56;6.47;;;1.48;;
18259;SDS011;9256;52.236;5.712;2023-08-07T10:39:23;6.40;;;1.42;;
18259;SDS011;9256;52.236;5.712;2023-08-07T10:41:52;7.13;;;1.20;;
18259;SDS011;9256;52.236;5.712;2023-08-07T10:44:21;6.07;;;1.60;;
18259;SDS011;9256;52.236;5.712;2023-08-07T10:46:51;5.05;;;1.48;;
18259;SDS011;9256;52.236;5.712;2023-08-07T10:49:32;5.95;;;1.60;;
18259;SDS011;9256;52.236;5.712;2023-08-07T10:52:04;6.05;;;1.60;;
18259;SDS011;9256;52.236;5.712;2023-08-07T10:54:38;6.55;;;1.70;;
18259;SDS011;9256;52.236;5.712;2023-08-07T10:57:12;7.72;;;1.50;;
18259;SDS011;9256;52.236;5.712;2023-08-07T10:59:43;9.00;;;1.70;;
18259;SDS011;9256;52.236;5.712;2023-08-07T11:02:21;5.88;;;1.48;;
18259;SDS011;9256;52.236;5.712;2023-08-07T11:04:49;8.52;;;1.88;;
18259;SDS011;9256;52.236;5.712;2023-08-07T11:07:22;8.45;;;1.70;;
18259;SDS011;9256;52.236;5.712;2023-08-07T11:09:51;5.63;;;1.45;;
18259;SDS011;9256;52.236;5.712;2023-08-07T11:12:18;9.60;;;1.70;;
18259;SDS011;9256;52.236;5.712;2023-08-07T11:14:45;9.10;;;1.90;;
18259;SDS011;9256;52.236;5.712;2023-08-07T11:17:14;6.38;;;1.40;;
18259;SDS011;9256;52.236;5.712;2023-08-07T11:19:42;8.88;;;1.70;;
18259;SDS011;9256;52.236;5.712;2023-08-07T11:22:09;8.07;;;1.75;;
18259;SDS011;9256;52.236;5.712;2023-08-07T11:24:37;14.80;;;1.80;;
18259;SDS011;9256;52.236;5.712;2023-08-07T11:27:05;8.30;;;1.85;;
18259;SDS011;9256;52.236;5.712;2023-08-07T11:29:34;9.82;;;2.08;;
18259;SDS011;9256;52.236;5.712;2023-08-07T11:32:01;8.15;;;1.80;;
18259;SDS011;9256;52.236;5.712;2023-08-07T11:34:30;7.80;;;1.80;;
18259;SDS011;9256;52.236;5.712;2023-08-07T11:36:57;6.25;;;1.75;;
18259;SDS011;9256;52.236;5.712;2023-08-07T11:39:26;9.27;;;1.77;;
18259;SDS011;9256;52.236;5.712;2023-08-07T11:41:53;8.55;;;1.67;;
18259;SDS011;9256;52.236;5.712;2023-08-07T11:44:20;6.82;;;1.38;;
18259;SDS011;9256;52.236;5.712;2023-08-07T11:46:49;9.73;;;1.75;;
18259;SDS011;9256;52.236;5.712;2023-08-07T11:49:17;6.78;;;1.65;;
18259;SDS011;9256;52.236;5.712;2023-08-07T11:51:46;6.60;;;1.60;;
18259;SDS011;9256;52.236;5.712;2023-08-07T11:54:13;7.38;;;1.48;;
18259;SDS011;9256;52.236;5.712;2023-08-07T11:56:41;4.95;;;1.30;;
18259;SDS011;9256;52.236;5.712;2023-08-07T11:59:08;5.60;;;1.40;;
18259;SDS011;9256;52.236;5.712;2023-08-07T12:01:37;6.78;;;1.50;;
18259;SDS011;9256;52.236;5.712;2023-08-07T12:04:08;7.97;;;1.30;;
18259;SDS011;9256;52.236;5.712;2023-08-07T12:06:36;4.60;;;1.30;;
18259;SDS011;9256;52.236;5.712;2023-08-07T12:09:06;4.32;;;1.10;;
18259;SDS011;9256;52.236;5.712;2023-08-07T12:11:37;11.02;;;1.30;;
18259;SDS011;9256;52.236;5.712;2023-08-07T12:14:04;2.50;;;1.00;;
18259;SDS011;9256;52.236;5.712;2023-08-07T12:16:32;4.80;;;1.02;;
18259;SDS011;9256;52.236;5.712;2023-08-07T12:18:59;4.75;;;1.05;;
18259;SDS011;9256;52.236;5.712;2023-08-07T12:21:29;4.38;;;1.20;;
18259;SDS011;9256;52.236;5.712;2023-08-07T12:23:58;5.43;;;1.30;;
18259;SDS011;9256;52.236;5.712;2023-08-07T12:26:27;4.28;;;1.27;;
18259;SDS011;9256;52.236;5.712;2023-08-07T12:28:54;3.45;;;1.10;;
18259;SDS011;9256;52.236;5.712;2023-08-07T12:31:20;3.65;;;1.15;;
18259;SDS011;9256;52.236;5.712;2023-08-07T12:33:47;3.40;;;1.20;;
18259;SDS011;9256;52.236;5.712;2023-08-07T12:36:14;4.93;;;1.17;;
18259;SDS011;9256;52.236;5.712;2023-08-07T12:38:41;4.82;;;1.17;;
18259;SDS011;9256;52.236;5.712;2023-08-07T12:41:08;2.83;;;1.10;;
18259;SDS011;9256;52.236;5.712;2023-08-07T12:43:37;3.30;;;1.20;;
18259;SDS011;9256;52.236;5.712;2023-08-07T12:46:04;4.15;;;1.27;;
18259;SDS011;9256;52.236;5.712;2023-08-07T12:48:31;3.75;;;1.20;;
18259;SDS011;9256;52.236;5.712;2023-08-07T12:50:58;4.55;;;1.10;;
18259;SDS011;9256;52.236;5.712;2023-08-07T12:53:24;4.03;;;1.15;;
18259;SDS011;9256;52.236;5.712;2023-08-07T12:55:51;6.30;;;1.40;;
18259;SDS011;9256;52.236;5.712;2023-08-07T12:58:18;3.42;;;1.10;;
18259;SDS011;9256;52.236;5.712;2023-08-07T13:00:51;7.32;;;1.30;;
18259;SDS011;9256;52.236;5.712;2023-08-07T13:03:18;8.07;;;1.58;;
18259;SDS011;9256;52.236;5.712;2023-08-07T13:05:45;6.35;;;1.40;;
18259;SDS011;9256;52.236;5.712;2023-08-07T13:08:12;3.92;;;1.10;;
18259;SDS011;9256;52.236;5.712;2023-08-07T13:10:39;4.80;;;1.20;;
18259;SDS011;9256;52.236;5.712;2023-08-07T13:13:06;4.07;;;1.10;;
18259;SDS011;9256;52.236;5.712;2023-08-07T13:15:33;5.25;;;1.15;;
18259;SDS011;9256;52.236;5.712;2023-08-07T13:18:01;3.92;;;1.20;;
18259;SDS011;9256;52.236;5.712;2023-08-07T13:20:29;3.60;;;1.20;;
18259;SDS011;9256;52.236;5.712;2023-08-07T13:22:59;3.75;;;1.10;;
18259;SDS011;9256;52.236;5.712;2023-08-07T13:25:26;6.35;;;1.42;;
18259;SDS011;9256;52.236;5.712;2023-08-07T13:27:53;6.07;;;1.50;;
18259;SDS011;9256;52.236;5.712;2023-08-07T13:30:20;7.22;;;1.27;;
18259;SDS011;9256;52.236;5.712;2023-08-07T13:32:47;3.38;;;1.02;;
18259;SDS011;9256;52.236;5.712;2023-08-07T13:35:15;5.05;;;1.10;;
18259;SDS011;9256;52.236;5.712;2023-08-07T13:37:42;6.45;;;1.40;;
18259;SDS011;9256;52.236;5.712;2023-08-07T13:40:09;5.68;;;1.20;;
18259;SDS011;9256;52.236;5.712;2023-08-07T13:42:39;5.88;;;1.10;;
18259;SDS011;9256;52.236;5.712;2023-08-07T13:45:06;8.10;;;3.30;;
18259;SDS011;9256;52.236;5.712;2023-08-07T13:47:34;6.65;;;1.25;;
18259;SDS011;9256;52.236;5.712;2023-08-07T13:50:02;5.03;;;1.50;;
18259;SDS011;9256;52.236;5.712;2023-08-07T13:52:32;6.88;;;1.33;;
18259;SDS011;9256;52.236;5.712;2023-08-07T13:54:59;5.00;;;1.30;;
18259;SDS011;9256;52.236;5.712;2023-08-07T13:57:26;4.38;;;1.20;;
18259;SDS011;9256;52.236;5.712;2023-08-07T13:59:53;3.28;;;1.00;;
18259;SDS011;9256;52.236;5.712;2023-08-07T14:02:20;4.82;;;1.20;;
18259;SDS011;9256;52.236;5.712;2023-08-07T14:04:47;4.68;;;1.20;;
18259;SDS011;9256;52.236;5.712;2023-08-07T14:07:14;4.35;;;1.30;;
18259;SDS011;9256;52.236;5.712;2023-08-07T14:09:42;2.20;;;0.90;;
18259;SDS011;9256;52.236;5.712;2023-08-07T14:12:09;2.92;;;1.00;;
18259;SDS011;9256;52.236;5.712;2023-08-07T14:14:36;3.90;;;0.80;;
18259;SDS011;9256;52.236;5.712;2023-08-07T14:17:03;3.92;;;1.38;;
18259;SDS011;9256;52.236;5.712;2023-08-07T14:19:31;6.07;;;1.20;;
18259;SDS011;9256;52.236;5.712;2023-08-07T14:21:58;5.88;;;1.48;;
18259;SDS011;9256;52.236;5.712;2023-08-07T14:24:25;5.55;;;1.20;;
18259;SDS011;9256;52.236;5.712;2023-08-07T14:26:53;6.68;;;1.30;;
18259;SDS011;9256;52.236;5.712;2023-08-07T14:29:20;4.68;;;1.30;;
18259;SDS011;9256;52.236;5.712;2023-08-07T14:31:46;4.47;;;1.30;;
18259;SDS011;9256;52.236;5.712;2023-08-07T14:34:13;4.28;;;1.20;;
18259;SDS011;9256;52.236;5.712;2023-08-07T14:36:40;4.57;;;1.17;;
18259;SDS011;9256;52.236;5.712;2023-08-07T14:39:07;2.92;;;1.20;;
18259;SDS011;9256;52.236;5.712;2023-08-07T14:41:34;4.10;;;1.15;;
18259;SDS011;9256;52.236;5.712;2023-08-07T14:44:02;3.08;;;1.05;;
18259;SDS011;9256;52.236;5.712;2023-08-07T14:46:29;5.05;;;1.70;;
18259;SDS011;9256;52.236;5.712;2023-08-07T14:48:56;3.60;;;1.25;;
18259;SDS011;9256;52.236;5.712;2023-08-07T14:51:23;3.22;;;1.20;;
18259;SDS011;9256;52.236;5.712;2023-08-07T14:53:50;3.45;;;1.25;;
18259;SDS011;9256;52.236;5.712;2023-08-07T14:56:17;5.28;;;1.30;;
18259;SDS011;9256;52.236;5.712;2023-08-07T14:58:46;2.40;;;1.00;;
18259;SDS011;9256;52.236;5.712;2023-08-07T15:01:14;3.97;;;1.17;;